Pagina principale
METAR-TAF:

METAR-TAF

Aeroporti :

Latina, Italia

Aeroporto di Latina

latitudine: 41-33N, longitudine: 012-54E, altezza: 25 m

Osservazione

Il bollettino è stato emesso 44 minuti fa, alle 12:55 UTC
Vento 10 kt da ovest/sud-ovest
Temperature 23°C
Umidità 50%
Pressione 1011 hPa
Visibilità 10 km o più
Nubi sparse ad un'altezza di 2000 ft
Poco nuvoloso ad un'altezza di 2500 ft, Cumulo congesto.

METAR: LIRL 191255Z 25010KT 9999 SCT020 FEW025TCU 23/12 Q1011 RMK BKN MON LIB NC VIS MIN 9999 WIND THR12 26010KT WIND THR30 25010KT BLU

Ora: 15:39 (13:39 UTC)

Previsione

Il bollettino è stato emesso 2 ore e 39 minuti fa, alle 11:00 UTC
Previsione valida dal 19 alle 12 UTC al 19 alle 21 UTC
Vento 10 kt da ovest
Visibilità 10 km o più
Nubi sparse ad un'altezza di 2000 ft

TAF: LIRL 191100Z 1912/1921 27010KT 9999 SCT020

Osservazioni e previsioni meteorologiche di più di 4000 aeroporti (messaggi METAR e TAF).

Le stazioni disponibili sono rappresentate dai dischi gialli e rossi sulla carta.

Puntare il mouse per vedere il nome della stazione.

Clicca sopra per visualizzare le osservazioni e previsioni meteorologiche.

Per cambiare la mappa : fare clic sui pulsanti verdi con una croce nera per ingrandire, il pulsante verde con un trattino per diminuire, o sulla freccia verde per le mappe adiacenti.


METAR-TAF: